sim
Sign-in with your pilot id or email,
or register
Callsign
Passwort

Schedule Details

Flight Number: DLH2063 (1)
Departure: Hamburg Airport (EDDH) at 08:50
Arrival: Munich Airport (EDDM) at 10:05
Route: Lufthansa Passenger Schedule. Enter filed route here before submitting Pirep.

Weather Information
Getting current METAR information for EDDH 191450Z 08007KT 040V110 CAVOK 19/06 Q1021 NOSIG
Getting current METAR information for EDDM 191450Z 05004KT 020V080 CAVOK 22/12 Q1018 NOSIG

Schedule Frequency

Route Map